Time;durP1;ratioP1;P1;durP2;ratioP2;P2;SDS_P1;SDS_P2;PMS_P1;PMS_P2;Temp;Humidity;BMP_temperature;BMP_pressure;BME280_temperature;BME280_humidity;BME280_pressure;Samples;Min_cycle;Max_cycle;Signal;HPM_P1;HPM_P2
2023/01/08 00:01:08;;;;;;;;;;;;;;;;;;5112334;28;19911;-70
2023/01/08 00:03:34;;;;;;;;;;;;;;;;;;5112151;28;19912;-70
2023/01/08 00:06:01;;;;;;;;;;;;;;;;;;5112350;28;20273;-69
2023/01/08 00:08:26;;;;;;;;;;;;;;;;;;5112187;28;19912;-69
2023/01/08 00:10:52;;;;;;;;;;;;;;;;;;5102388;28;20376;-70
2023/01/08 00:13:18;;;;;;;;;;;;;;;;;;5099554;28;19999;-70
2023/01/08 00:15:44;;;;;;;;;;;;;;;;;;5107051;28;19952;-69
2023/01/08 00:18:10;;;;;;;;;;;;;;;;;;5073563;28;19955;-70
2023/01/08 00:20:38;;;;;;;;;;;;;;;;;;5075993;28;20810;-69
2023/01/08 00:23:04;;;;;;;;;;;;;;;;;;5079292;28;20266;-70
2023/01/08 00:25:30;;;;;;;;;;;;;;;;;;5090324;28;19919;-69
2023/01/08 00:27:56;;;;;;;;;;;;;;;;;;5073882;28;19909;-70
2023/01/08 00:30:22;;;;;;;;;;;;;;;;;;5087749;28;19963;-70
2023/01/08 00:32:47;;;;;;;;;;;;;;;;;;5082988;28;19912;-69
2023/01/08 00:35:13;;;;;;;;;;;;;;;;;;5088114;28;19915;-70
2023/01/08 00:37:39;;;;;;;;;;;;;;;;;;5076273;28;19934;-70
2023/01/08 00:40:05;;;;;;;;;;;;;;;;;;5079137;28;20401;-70
2023/01/08 00:42:31;;;;;;;;;;;;;;;;;;5087238;28;19917;-70
2023/01/08 00:44:57;;;;;;;;;;;;;;;;;;5072972;28;19912;-70
2023/01/08 00:47:23;;;;;;;;;;;;;;;;;;5071782;28;19920;-69
2023/01/08 00:49:49;;;;;;;;;;;;;;;;;;5080484;28;19912;-70
2023/01/08 00:52:15;;;;;;;;;;;;;;;;;;5089930;28;19912;-70
2023/01/08 00:54:41;;;;;;;;;;;;;;;;;;5091278;28;19916;-70
2023/01/08 00:57:07;;;;;;;;;;;;;;;;;;5091427;28;19920;-70
2023/01/08 00:59:32;;;;;;;;;;;;;;;;;;5089668;28;19916;-70
2023/01/08 01:01:58;;;;;;;;;;;;;;;;;;5091284;28;20262;-70
2023/01/08 01:04:24;;;;;;;;;;;;;;;;;;5090637;28;19993;-70
2023/01/08 01:06:50;;;;;;;;;;;;;;;;;;5090730;28;19912;-70
2023/01/08 01:09:16;;;;;;;;;;;;;;;;;;5086801;28;20316;-69
2023/01/08 01:11:42;;;;;;;;;;;;;;;;;;5089943;28;19913;-70
2023/01/08 01:14:08;;;;;;;;;;;;;;;;;;5091475;28;19916;-70
2023/01/08 01:16:35;;;;;;;;;;;;;;;;;;5100950;28;19927;-70
2023/01/08 01:19:01;;;;;;;;;;;;;;;;;;5111810;28;19926;-70
2023/01/08 01:21:27;;;;;;;;;;;;;;;;;;5091973;28;19995;-70
2023/01/08 01:23:53;;;;;;;;;;;;;;;;;;5092993;28;19958;-69
2023/01/08 01:26:18;;;;;;;;;;;;;;;;;;5099074;28;19908;-70
2023/01/08 01:28:44;;;;;;;;;;;;;;;;;;5095068;28;19912;-70
2023/01/08 01:31:10;;;;;;;;;;;;;;;;;;5087465;28;20413;-70
2023/01/08 01:33:36;;;;;;;;;;;;;;;;;;5099405;28;20185;-69
2023/01/08 01:36:02;;;;;;;;;;;;;;;;;;5115124;28;19912;-69
2023/01/08 01:38:28;;;;;;;;;;;;;;;;;;5114959;28;19956;-69
2023/01/08 01:40:54;;;;;;;;;;;;;;;;;;5115461;28;20288;-69
2023/01/08 01:43:20;;;;;;;;;;;;;;;;;;5114827;28;20372;-69
2023/01/08 01:45:46;;;;;;;;;;;;;;;;;;5111315;28;19927;-69
2023/01/08 01:48:12;;;;;;;;;;;;;;;;;;5115142;28;20288;-70
2023/01/08 01:50:38;;;;;;;;;;;;;;;;;;5096622;28;19911;-70
2023/01/08 01:53:03;;;;;;;;;;;;;;;;;;5105811;28;19923;-69
2023/01/08 01:55:29;;;;;;;;;;;;;;;;;;5111542;28;19912;-69
2023/01/08 01:57:55;;;;;;;;;;;;;;;;;;5115055;28;19907;-70
2023/01/08 02:00:22;;;;;;;;;;;;;;;;;;5114921;28;20288;-69
2023/01/08 02:02:48;;;;;;;;;;;;;;;;;;5114938;28;19961;-69
2023/01/08 02:05:13;;;;;;;;;;;;;;;;;;5114787;28;19911;-69
2023/01/08 02:07:40;;;;;;;;;;;;;;;;;;5114758;28;20338;-70
2023/01/08 02:10:06;;;;;;;;;;;;;;;;;;5114634;28;19908;-69
2023/01/08 02:12:32;;;;;;;;;;;;;;;;;;5114848;28;19912;-69
2023/01/08 02:14:57;;;;;;;;;;;;;;;;;;5114834;28;19953;-69
2023/01/08 02:17:26;;;;;;;;;;;;;;;;;;5114578;28;19916;-69
2023/01/08 02:19:52;;;;;;;;;;;;;;;;;;5114409;28;19912;-69
2023/01/08 02:22:18;;;;;;;;;;;;;;;;;;5114657;28;20357;-70
2023/01/08 02:24:44;;;;;;;;;;;;;;;;;;5093410;28;19987;-69
2023/01/08 02:27:10;;;;;;;;;;;;;;;;;;5093716;28;19920;-69
2023/01/08 02:29:36;;;;;;;;;;;;;;;;;;5103943;28;20365;-69
2023/01/08 02:32:02;;;;;;;;;;;;;;;;;;5114419;28;19908;-69
2023/01/08 02:34:30;;;;;;;;;;;;;;;;;;5080581;28;19908;-69
2023/01/08 02:36:56;;;;;;;;;;;;;;;;;;5091120;28;19920;-70
2023/01/08 02:39:22;;;;;;;;;;;;;;;;;;5093391;28;20046;-70
2023/01/08 02:41:48;;;;;;;;;;;;;;;;;;5093622;28;20402;-70
2023/01/08 02:44:14;;;;;;;;;;;;;;;;;;5093587;28;20311;-69
2023/01/08 02:46:40;;;;;;;;;;;;;;;;;;5093512;28;19919;-70
2023/01/08 02:49:06;;;;;;;;;;;;;;;;;;5092900;28;19912;-69
2023/01/08 02:51:32;;;;;;;;;;;;;;;;;;5093264;28;19912;-70
2023/01/08 02:53:58;;;;;;;;;;;;;;;;;;5093340;28;19919;-69
2023/01/08 02:56:24;;;;;;;;;;;;;;;;;;5092967;28;20426;-69
2023/01/08 02:58:51;;;;;;;;;;;;;;;;;;5092883;28;19962;-69
2023/01/08 03:01:17;;;;;;;;;;;;;;;;;;5074781;28;19916;-70
2023/01/08 03:03:42;;;;;;;;;;;;;;;;;;5093810;28;19914;-70
2023/01/08 03:06:08;;;;;;;;;;;;;;;;;;5103570;28;19908;-69
2023/01/08 03:08:34;;;;;;;;;;;;;;;;;;5072908;28;19908;-70
2023/01/08 03:11:00;;;;;;;;;;;;;;;;;;5071806;28;20400;-69
2023/01/08 03:13:26;;;;;;;;;;;;;;;;;;5073061;28;19909;-69
2023/01/08 03:15:52;;;;;;;;;;;;;;;;;;5084354;28;19955;-70
2023/01/08 03:18:18;;;;;;;;;;;;;;;;;;5094810;28;19915;-70
2023/01/08 03:20:44;;;;;;;;;;;;;;;;;;5113440;28;19915;-69
2023/01/08 03:23:10;;;;;;;;;;;;;;;;;;5113487;28;20284;-69
2023/01/08 03:25:36;;;;;;;;;;;;;;;;;;5113378;28;19908;-69
2023/01/08 03:28:02;;;;;;;;;;;;;;;;;;5113388;28;19907;-69
2023/01/08 03:30:28;;;;;;;;;;;;;;;;;;5112859;28;19911;-69
2023/01/08 03:32:54;;;;;;;;;;;;;;;;;;5102729;28;20300;-69
2023/01/08 03:35:20;;;;;;;;;;;;;;;;;;5093917;28;20428;-70
2023/01/08 03:37:46;;;;;;;;;;;;;;;;;;5094112;28;19994;-70
2023/01/08 03:40:11;;;;;;;;;;;;;;;;;;5112026;28;19966;-69
2023/01/08 03:42:37;;;;;;;;;;;;;;;;;;5110823;28;19912;-70
2023/01/08 03:45:03;;;;;;;;;;;;;;;;;;5112179;28;19958;-69
2023/01/08 03:47:29;;;;;;;;;;;;;;;;;;5112398;28;19916;-69
2023/01/08 03:49:55;;;;;;;;;;;;;;;;;;5111063;28;19957;-69
2023/01/08 03:52:21;;;;;;;;;;;;;;;;;;5094567;28;20385;-69
2023/01/08 03:54:47;;;;;;;;;;;;;;;;;;5104113;28;19912;-69
2023/01/08 03:57:13;;;;;;;;;;;;;;;;;;5110464;28;19912;-69
2023/01/08 03:59:39;;;;;;;;;;;;;;;;;;5112119;28;19919;-69
2023/01/08 04:02:05;;;;;;;;;;;;;;;;;;5101592;28;19912;-69
2023/01/08 04:04:31;;;;;;;;;;;;;;;;;;5092477;28;20396;-69
2023/01/08 04:06:57;;;;;;;;;;;;;;;;;;5110717;28;19908;-69
2023/01/08 04:09:23;;;;;;;;;;;;;;;;;;5112275;28;19919;-69
2023/01/08 04:11:48;;;;;;;;;;;;;;;;;;5112862;28;19915;-69
2023/01/08 04:14:14;;;;;;;;;;;;;;;;;;5112869;28;19911;-69
2023/01/08 04:16:40;;;;;;;;;;;;;;;;;;5111740;28;20300;-69
2023/01/08 04:19:06;;;;;;;;;;;;;;;;;;5094037;28;20413;-70
2023/01/08 04:21:32;;;;;;;;;;;;;;;;;;5097407;28;19965;-70
2023/01/08 04:23:58;;;;;;;;;;;;;;;;;;5091006;28;19924;-69
2023/01/08 04:26:24;;;;;;;;;;;;;;;;;;5104587;28;19912;-69
2023/01/08 04:28:50;;;;;;;;;;;;;;;;;;5112246;28;19915;-69
2023/01/08 04:31:16;;;;;;;;;;;;;;;;;;5111788;28;19912;-70
2023/01/08 04:33:42;;;;;;;;;;;;;;;;;;5094217;28;19912;-70
2023/01/08 04:36:08;;;;;;;;;;;;;;;;;;5083114;28;19918;-69
2023/01/08 04:38:34;;;;;;;;;;;;;;;;;;5091879;28;19919;-69
2023/01/08 04:41:00;;;;;;;;;;;;;;;;;;5099983;28;19916;-69
2023/01/08 04:43:26;;;;;;;;;;;;;;;;;;5091927;28;20261;-69
2023/01/08 04:45:52;;;;;;;;;;;;;;;;;;5099732;28;20376;-69
2023/01/08 04:48:18;;;;;;;;;;;;;;;;;;5093880;28;19912;-69
2023/01/08 04:50:44;;;;;;;;;;;;;;;;;;5104838;28;19912;-69
2023/01/08 04:53:10;;;;;;;;;;;;;;;;;;5090730;28;19954;-69
2023/01/08 04:55:36;;;;;;;;;;;;;;;;;;5106801;28;19912;-69
2023/01/08 04:58:02;;;;;;;;;;;;;;;;;;5091825;28;19919;-68
2023/01/08 05:00:27;;;;;;;;;;;;;;;;;;5095463;28;19916;-69
2023/01/08 05:02:53;;;;;;;;;;;;;;;;;;5116244;28;20380;-69
2023/01/08 05:05:19;;;;;;;;;;;;;;;;;;5113549;28;19908;-69
2023/01/08 05:07:45;;;;;;;;;;;;;;;;;;5094517;28;19908;-68
2023/01/08 05:10:11;;;;;;;;;;;;;;;;;;5094275;28;19912;-69
2023/01/08 05:12:37;;;;;;;;;;;;;;;;;;5095450;28;19931;-69
2023/01/08 05:15:03;;;;;;;;;;;;;;;;;;5095421;28;20276;-69
2023/01/08 05:17:29;;;;;;;;;;;;;;;;;;5095407;28;19923;-68
2023/01/08 05:19:55;;;;;;;;;;;;;;;;;;5095307;28;19912;-69
2023/01/08 05:22:21;;;;;;;;;;;;;;;;;;5094749;28;19951;-69
2023/01/08 05:24:46;;;;;;;;;;;;;;;;;;5095421;28;19955;-68
2023/01/08 05:27:12;;;;;;;;;;;;;;;;;;5077297;28;19958;-69
2023/01/08 05:29:38;;;;;;;;;;;;;;;;;;5074935;28;20338;-68
2023/01/08 05:32:04;;;;;;;;;;;;;;;;;;5074950;28;19919;-69
2023/01/08 05:34:30;;;;;;;;;;;;;;;;;;5075039;28;19916;-69
2023/01/08 05:36:57;;;;;;;;;;;;;;;;;;5076052;28;19912;-69
2023/01/08 05:39:23;;;;;;;;;;;;;;;;;;5074743;28;19913;-69
2023/01/08 05:41:49;;;;;;;;;;;;;;;;;;5076649;28;19918;-69
2023/01/08 05:44:15;;;;;;;;;;;;;;;;;;5094988;28;20400;-69
2023/01/08 05:46:41;;;;;;;;;;;;;;;;;;5076556;28;20416;-69
2023/01/08 05:49:07;;;;;;;;;;;;;;;;;;5094522;28;20003;-69
2023/01/08 05:51:32;;;;;;;;;;;;;;;;;;5082921;28;19913;-68
2023/01/08 05:53:58;;;;;;;;;;;;;;;;;;5074728;28;19916;-68
2023/01/08 05:56:24;;;;;;;;;;;;;;;;;;5074380;28;19919;-69
2023/01/08 05:58:50;;;;;;;;;;;;;;;;;;5074520;28;19970;-68
2023/01/08 06:01:16;;;;;;;;;;;;;;;;;;5084382;28;19912;-69
2023/01/08 06:03:42;;;;;;;;;;;;;;;;;;5094947;28;19915;-68
2023/01/08 06:06:08;;;;;;;;;;;;;;;;;;5085940;28;19912;-68
2023/01/08 06:08:34;;;;;;;;;;;;;;;;;;5076057;28;19919;-68
2023/01/08 06:11:00;;;;;;;;;;;;;;;;;;5076111;28;19954;-68
2023/01/08 06:13:26;;;;;;;;;;;;;;;;;;5094449;28;19944;-68
2023/01/08 06:15:52;;;;;;;;;;;;;;;;;;5098901;28;19922;-69
2023/01/08 06:18:18;;;;;;;;;;;;;;;;;;5114541;28;19998;-68
2023/01/08 06:20:44;;;;;;;;;;;;;;;;;;5114376;28;20007;-68
2023/01/08 06:23:10;;;;;;;;;;;;;;;;;;5114804;28;19908;-69
2023/01/08 06:25:36;;;;;;;;;;;;;;;;;;5110245;28;19919;-69
2023/01/08 06:28:01;;;;;;;;;;;;;;;;;;5094172;28;19947;-69
2023/01/08 06:30:27;;;;;;;;;;;;;;;;;;5093999;28;19912;-69
2023/01/08 06:32:53;;;;;;;;;;;;;;;;;;5094178;28;20003;-69
2023/01/08 06:35:19;;;;;;;;;;;;;;;;;;5095481;28;20352;-68
2023/01/08 06:37:45;;;;;;;;;;;;;;;;;;5114476;28;20006;-68
2023/01/08 06:40:11;;;;;;;;;;;;;;;;;;5114131;28;20032;-68
2023/01/08 06:42:37;;;;;;;;;;;;;;;;;;5114265;28;19908;-68
2023/01/08 06:45:03;;;;;;;;;;;;;;;;;;5114252;28;19908;-68
2023/01/08 06:47:29;;;;;;;;;;;;;;;;;;5113592;28;19912;-68
2023/01/08 06:49:55;;;;;;;;;;;;;;;;;;5114015;28;20402;-68
2023/01/08 06:52:21;;;;;;;;;;;;;;;;;;5096635;28;19919;-68
2023/01/08 06:54:47;;;;;;;;;;;;;;;;;;5093629;28;20454;-69
2023/01/08 06:57:12;;;;;;;;;;;;;;;;;;5108222;28;20353;-69
2023/01/08 06:59:38;;;;;;;;;;;;;;;;;;5113561;28;20380;-69
2023/01/08 07:02:04;;;;;;;;;;;;;;;;;;5113601;28;19941;-68
2023/01/08 07:04:30;;;;;;;;;;;;;;;;;;5113930;28;19907;-68
2023/01/08 07:06:56;;;;;;;;;;;;;;;;;;5112098;28;19911;-68
2023/01/08 07:09:22;;;;;;;;;;;;;;;;;;5080140;28;19923;-68
2023/01/08 07:11:48;;;;;;;;;;;;;;;;;;5093283;28;19909;-68
2023/01/08 07:14:14;;;;;;;;;;;;;;;;;;5093246;28;19919;-68
2023/01/08 07:16:40;;;;;;;;;;;;;;;;;;5094320;28;19916;-68
2023/01/08 07:19:06;;;;;;;;;;;;;;;;;;5095667;28;20392;-68
2023/01/08 07:21:32;;;;;;;;;;;;;;;;;;5112686;28;20433;-68
2023/01/08 07:23:58;;;;;;;;;;;;;;;;;;5112880;28;19908;-68
2023/01/08 07:26:24;;;;;;;;;;;;;;;;;;5113303;28;20253;-68
2023/01/08 07:28:50;;;;;;;;;;;;;;;;;;5094068;28;19911;-68
2023/01/08 07:31:16;;;;;;;;;;;;;;;;;;5112610;28;19912;-68
2023/01/08 07:33:42;;;;;;;;;;;;;;;;;;5098970;28;19923;-69
2023/01/08 07:36:08;;;;;;;;;;;;;;;;;;5089309;28;19920;-69
2023/01/08 07:38:33;;;;;;;;;;;;;;;;;;5107054;28;19916;-68
2023/01/08 07:40:59;;;;;;;;;;;;;;;;;;5106793;28;19912;-68
2023/01/08 07:43:26;;;;;;;;;;;;;;;;;;5108225;28;20367;-69
2023/01/08 07:45:52;;;;;;;;;;;;;;;;;;5107165;28;19939;-68
2023/01/08 07:48:18;;;;;;;;;;;;;;;;;;5110383;28;20356;-69
2023/01/08 07:50:44;;;;;;;;;;;;;;;;;;5112906;28;19908;-69
2023/01/08 07:53:10;;;;;;;;;;;;;;;;;;5094654;28;19914;-69
2023/01/08 07:55:36;;;;;;;;;;;;;;;;;;5094424;28;19912;-69
2023/01/08 07:58:02;;;;;;;;;;;;;;;;;;5112960;28;20401;-69
2023/01/08 08:00:28;;;;;;;;;;;;;;;;;;5112280;28;20384;-69
2023/01/08 08:02:53;;;;;;;;;;;;;;;;;;5112717;28;19908;-69
2023/01/08 08:05:19;;;;;;;;;;;;;;;;;;5112602;28;19919;-68
2023/01/08 08:07:45;;;;;;;;;;;;;;;;;;5110690;28;19912;-68
2023/01/08 08:10:11;;;;;;;;;;;;;;;;;;5112219;28;19915;-68
2023/01/08 08:12:37;;;;;;;;;;;;;;;;;;5112790;28;19915;-68
2023/01/08 08:15:03;;;;;;;;;;;;;;;;;;5103084;28;19912;-68
2023/01/08 08:17:29;;;;;;;;;;;;;;;;;;5076344;28;20296;-68
2023/01/08 08:19:55;;;;;;;;;;;;;;;;;;5104681;28;19916;-68
2023/01/08 08:22:21;;;;;;;;;;;;;;;;;;5112355;28;19915;-67
2023/01/08 08:24:47;;;;;;;;;;;;;;;;;;5112501;28;19908;-67
2023/01/08 08:27:13;;;;;;;;;;;;;;;;;;5112503;28;19911;-67
2023/01/08 08:29:38;;;;;;;;;;;;;;;;;;5112462;28;20280;-64
2023/01/08 08:32:04;;;;;;;;;;;;;;;;;;5095206;28;20391;-64
2023/01/08 08:34:30;;;;;;;;;;;;;;;;;;5111515;28;19919;-64
2023/01/08 08:36:56;;;;;;;;;;;;;;;;;;5106666;27;20006;-64
2023/01/08 08:39:22;;;;;;;;;;;;;;;;;;5096847;28;20015;-64
2023/01/08 08:41:48;;;;;;;;;;;;;;;;;;5097885;27;19923;-64
2023/01/08 08:44:14;;;;;;;;;;;;;;;;;;5116646;27;19908;-64
2023/01/08 08:46:40;;;;;;;;;;;;;;;;;;5116376;28;20003;-64
2023/01/08 08:49:06;;;;;;;;;;;;;;;;;;5112227;28;19955;-64
2023/01/08 08:51:32;;;;;;;;;;;;;;;;;;5086350;28;19981;-64
2023/01/08 08:53:58;;;;;;;;;;;;;;;;;;5116039;28;19912;-64
2023/01/08 08:56:24;;;;;;;;;;;;;;;;;;5116218;28;19961;-64
2023/01/08 08:58:51;;;;;;;;;;;;;;;;;;5095911;28;19916;-64
2023/01/08 09:01:17;;;;;;;;;;;;;;;;;;5095787;28;19908;-64
2023/01/08 09:03:43;;;;;;;;;;;;;;;;;;5113786;28;19939;-64
2023/01/08 09:06:08;;;;;;;;;;;;;;;;;;5113799;28;20301;-64
2023/01/08 09:08:34;;;;;;;;;;;;;;;;;;5114183;28;20002;-64
2023/01/08 09:11:00;;;;;;;;;;;;;;;;;;5112845;28;21243;-64
2023/01/08 09:13:26;;;;;;;;;;;;;;;;;;5114476;28;19911;-64
2023/01/08 09:15:52;;;;;;;;;;;;;;;;;;5096084;28;19923;-64
2023/01/08 09:18:18;;;;;;;;;;;;;;;;;;5114167;28;20422;-64
2023/01/08 09:20:44;;;;;;;;;;;;;;;;;;5095820;28;19962;-64
2023/01/08 09:23:10;;;;;;;;;;;;;;;;;;5114826;28;19926;-64
2023/01/08 09:25:36;;;;;;;;;;;;;;;;;;5114692;28;19965;-64
2023/01/08 09:28:02;;;;;;;;;;;;;;;;;;5095318;28;19920;-64
2023/01/08 09:30:28;;;;;;;;;;;;;;;;;;5113884;28;19911;-64
2023/01/08 09:32:54;;;;;;;;;;;;;;;;;;5113184;28;20010;-64
2023/01/08 09:35:19;;;;;;;;;;;;;;;;;;5111378;28;20011;-64
2023/01/08 09:37:45;;;;;;;;;;;;;;;;;;5114386;28;20355;-64
2023/01/08 09:40:11;;;;;;;;;;;;;;;;;;5106858;28;20329;-64
2023/01/08 09:42:37;;;;;;;;;;;;;;;;;;5114593;28;20262;-64
2023/01/08 09:45:03;;;;;;;;;;;;;;;;;;5095940;28;19919;-64
2023/01/08 09:47:29;;;;;;;;;;;;;;;;;;5113132;28;19919;-64
2023/01/08 09:49:55;;;;;;;;;;;;;;;;;;5113511;28;19912;-64
2023/01/08 09:52:21;;;;;;;;;;;;;;;;;;5113577;28;19916;-64
2023/01/08 09:54:47;;;;;;;;;;;;;;;;;;5113592;28;19923;-64
2023/01/08 09:57:13;;;;;;;;;;;;;;;;;;5112577;28;19919;-64
2023/01/08 09:59:39;;;;;;;;;;;;;;;;;;5114878;28;19912;-64
2023/01/08 10:02:05;;;;;;;;;;;;;;;;;;5114926;28;20283;-64
2023/01/08 10:04:32;;;;;;;;;;;;;;;;;;5115570;28;19954;-64
2023/01/08 10:06:58;;;;;;;;;;;;;;;;;;5114927;28;20288;-64
2023/01/08 10:09:23;;;;;;;;;;;;;;;;;;5114743;28;20189;-64
2023/01/08 10:11:49;;;;;;;;;;;;;;;;;;5115042;28;19907;-64
2023/01/08 10:14:15;;;;;;;;;;;;;;;;;;5114999;28;19915;-64
2023/01/08 10:16:41;;;;;;;;;;;;;;;;;;5101940;28;19916;-64
2023/01/08 10:19:07;;;;;;;;;;;;;;;;;;5094162;28;20388;-64
2023/01/08 10:21:33;;;;;;;;;;;;;;;;;;5094257;28;19916;-64
2023/01/08 10:23:59;;;;;;;;;;;;;;;;;;5094404;28;19904;-64
2023/01/08 10:26:25;;;;;;;;;;;;;;;;;;5094267;28;19908;-64
2023/01/08 10:28:51;;;;;;;;;;;;;;;;;;5094187;28;19904;-64
2023/01/08 10:31:17;;;;;;;;;;;;;;;;;;5094206;28;19914;-64
2023/01/08 10:33:43;;;;;;;;;;;;;;;;;;5094182;28;19908;-64
2023/01/08 10:36:09;;;;;;;;;;;;;;;;;;5093922;28;19998;-64
2023/01/08 10:38:35;;;;;;;;;;;;;;;;;;5093919;28;20292;-64
2023/01/08 10:41:00;;;;;;;;;;;;;;;;;;5094162;28;19943;-64
2023/01/08 10:43:27;;;;;;;;;;;;;;;;;;5093948;28;20013;-64
2023/01/08 10:45:53;;;;;;;;;;;;;;;;;;5093723;28;19923;-64
2023/01/08 10:48:19;;;;;;;;;;;;;;;;;;5093691;28;20319;-64
2023/01/08 10:50:46;;;;;;;;;;;;;;;;;;5093666;28;20381;-64
2023/01/08 10:53:12;;;;;;;;;;;;;;;;;;5075061;28;19916;-64
2023/01/08 10:55:39;;;;;;;;;;;;;;;;;;5092690;28;19912;-64
2023/01/08 10:58:05;;;;;;;;;;;;;;;;;;5092039;28;19908;-64
2023/01/08 11:00:31;;;;;;;;;;;;;;;;;;5092315;28;19923;-64
2023/01/08 11:02:57;;;;;;;;;;;;;;;;;;5093648;28;20003;-64
2023/01/08 11:05:23;;;;;;;;;;;;;;;;;;5093555;28;20455;-64
2023/01/08 11:07:49;;;;;;;;;;;;;;;;;;5093530;28;20269;-64
2023/01/08 11:10:14;;;;;;;;;;;;;;;;;;5093291;28;19911;-64
2023/01/08 11:12:40;;;;;;;;;;;;;;;;;;5093413;28;19966;-64
2023/01/08 11:15:06;;;;;;;;;;;;;;;;;;5093250;28;19904;-64
2023/01/08 11:17:32;;;;;;;;;;;;;;;;;;5093014;28;19916;-64
2023/01/08 11:19:58;;;;;;;;;;;;;;;;;;5092928;28;19912;-63
2023/01/08 11:22:24;;;;;;;;;;;;;;;;;;5093168;28;19908;-64
2023/01/08 11:24:50;;;;;;;;;;;;;;;;;;5093157;28;20345;-64
2023/01/08 11:27:16;;;;;;;;;;;;;;;;;;5093029;28;20006;-64
2023/01/08 11:29:43;;;;;;;;;;;;;;;;;;5092791;28;20009;-64
2023/01/08 11:32:09;;;;;;;;;;;;;;;;;;5092952;28;19966;-64
2023/01/08 11:34:35;;;;;;;;;;;;;;;;;;5092889;28;19908;-64
2023/01/08 11:37:01;;;;;;;;;;;;;;;;;;5092936;28;19912;-64
2023/01/08 11:39:26;;;;;;;;;;;;;;;;;;5092025;28;19961;-64
2023/01/08 11:41:52;;;;;;;;;;;;;;;;;;5083119;28;20011;-64
2023/01/08 11:44:18;;;;;;;;;;;;;;;;;;5091872;28;20416;-64
2023/01/08 11:46:44;;;;;;;;;;;;;;;;;;5092207;28;20015;-64
2023/01/08 11:49:10;;;;;;;;;;;;;;;;;;5092137;28;19947;-65
2023/01/08 11:51:36;;;;;;;;;;;;;;;;;;5092430;28;19963;-65
2023/01/08 11:54:02;;;;;;;;;;;;;;;;;;5091843;28;19923;-65
2023/01/08 11:56:28;;;;;;;;;;;;;;;;;;5091653;28;19908;-65
2023/01/08 11:58:54;;;;;;;;;;;;;;;;;;5091195;28;20279;-65
2023/01/08 12:01:20;;;;;;;;;;;;;;;;;;5090769;28;19912;-65
2023/01/08 12:03:46;;;;;;;;;;;;;;;;;;5086276;28;19919;-65
2023/01/08 12:06:12;;;;;;;;;;;;;;;;;;5091643;28;20385;-65
2023/01/08 12:08:38;;;;;;;;;;;;;;;;;;5091657;28;19951;-65
2023/01/08 12:11:04;;;;;;;;;;;;;;;;;;5091577;28;19912;-65
2023/01/08 12:13:30;;;;;;;;;;;;;;;;;;5091539;28;19912;-64
2023/01/08 12:15:56;;;;;;;;;;;;;;;;;;5098663;28;19944;-65
2023/01/08 12:18:22;;;;;;;;;;;;;;;;;;5112019;28;20383;-64
2023/01/08 12:20:48;;;;;;;;;;;;;;;;;;5111001;28;19943;-64
2023/01/08 12:23:15;;;;;;;;;;;;;;;;;;5083821;28;19912;-65
2023/01/08 12:25:41;;;;;;;;;;;;;;;;;;5092956;28;20368;-64
2023/01/08 12:28:06;;;;;;;;;;;;;;;;;;5104895;28;19965;-64
2023/01/08 12:30:32;;;;;;;;;;;;;;;;;;5092482;28;19920;-64
2023/01/08 12:32:58;;;;;;;;;;;;;;;;;;5103502;28;19908;-65
2023/01/08 12:35:24;;;;;;;;;;;;;;;;;;5100917;28;20380;-64
2023/01/08 12:37:50;;;;;;;;;;;;;;;;;;5096088;28;19973;-64
2023/01/08 12:40:16;;;;;;;;;;;;;;;;;;5111542;28;19915;-65
2023/01/08 12:42:42;;;;;;;;;;;;;;;;;;5112373;28;20367;-64
2023/01/08 12:45:08;;;;;;;;;;;;;;;;;;5111230;28;19911;-64
2023/01/08 12:47:34;;;;;;;;;;;;;;;;;;5109572;28;19930;-65
2023/01/08 12:50:00;;;;;;;;;;;;;;;;;;5099792;28;19912;-65
2023/01/08 12:52:26;;;;;;;;;;;;;;;;;;5112370;28;20276;-64
2023/01/08 12:54:52;;;;;;;;;;;;;;;;;;5101904;28;19916;-65
2023/01/08 12:57:18;;;;;;;;;;;;;;;;;;5091759;28;20316;-64
2023/01/08 12:59:44;;;;;;;;;;;;;;;;;;5091703;28;19923;-64
2023/01/08 13:02:10;;;;;;;;;;;;;;;;;;5110068;28;19912;-65
2023/01/08 13:04:36;;;;;;;;;;;;;;;;;;5112535;28;20249;-65
2023/01/08 13:07:02;;;;;;;;;;;;;;;;;;5093534;28;20112;-65
2023/01/08 13:09:28;;;;;;;;;;;;;;;;;;5105793;28;19912;-64
2023/01/08 13:11:53;;;;;;;;;;;;;;;;;;5091636;28;19912;-64
2023/01/08 13:14:19;;;;;;;;;;;;;;;;;;5091748;28;19908;-65
2023/01/08 13:16:45;;;;;;;;;;;;;;;;;;5104607;28;20372;-64
2023/01/08 13:19:11;;;;;;;;;;;;;;;;;;5091786;28;20019;-65
2023/01/08 13:21:37;;;;;;;;;;;;;;;;;;5106427;28;19919;-64
2023/01/08 13:24:03;;;;;;;;;;;;;;;;;;5112796;28;19926;-64
2023/01/08 13:26:30;;;;;;;;;;;;;;;;;;5083211;28;20401;-64
2023/01/08 13:28:56;;;;;;;;;;;;;;;;;;5095154;28;19908;-64
2023/01/08 13:31:23;;;;;;;;;;;;;;;;;;5105906;28;20339;-64
2023/01/08 13:33:51;;;;;;;;;;;;;;;;;;5115657;28;20327;-64
2023/01/08 13:36:17;;;;;;;;;;;;;;;;;;5104295;28;20347;-65
2023/01/08 13:38:43;;;;;;;;;;;;;;;;;;5094966;28;19985;-64
2023/01/08 13:41:09;;;;;;;;;;;;;;;;;;5114037;28;19911;-65
2023/01/08 13:43:34;;;;;;;;;;;;;;;;;;5115372;28;19908;-65
2023/01/08 13:46:00;;;;;;;;;;;;;;;;;;5114464;28;19912;-64
2023/01/08 13:48:26;;;;;;;;;;;;;;;;;;5114834;28;19908;-65
2023/01/08 13:50:52;;;;;;;;;;;;;;;;;;5109893;28;20286;-65
2023/01/08 13:53:18;;;;;;;;;;;;;;;;;;5094869;28;20352;-65
2023/01/08 13:55:44;;;;;;;;;;;;;;;;;;5110156;28;19916;-65
2023/01/08 13:58:10;;;;;;;;;;;;;;;;;;5115027;28;20287;-65
2023/01/08 14:00:36;;;;;;;;;;;;;;;;;;5109868;28;20368;-64
2023/01/08 14:03:02;;;;;;;;;;;;;;;;;;5094796;28;19912;-65
2023/01/08 14:05:28;;;;;;;;;;;;;;;;;;5094654;28;20050;-65
2023/01/08 14:07:54;;;;;;;;;;;;;;;;;;5094612;28;19952;-65
2023/01/08 14:10:20;;;;;;;;;;;;;;;;;;5105881;28;20324;-65
2023/01/08 14:12:46;;;;;;;;;;;;;;;;;;5096148;28;20368;-65
2023/01/08 14:15:12;;;;;;;;;;;;;;;;;;5114512;28;20378;-65
2023/01/08 14:17:38;;;;;;;;;;;;;;;;;;5114595;28;19994;-66
2023/01/08 14:20:04;;;;;;;;;;;;;;;;;;5094589;28;20260;-66
2023/01/08 14:22:29;;;;;;;;;;;;;;;;;;5114329;28;19919;-66
2023/01/08 14:24:55;;;;;;;;;;;;;;;;;;5106170;28;19923;-66
2023/01/08 14:27:21;;;;;;;;;;;;;;;;;;5094480;28;20376;-66
2023/01/08 14:29:47;;;;;;;;;;;;;;;;;;5114360;28;19908;-66
2023/01/08 14:32:13;;;;;;;;;;;;;;;;;;5105957;28;19943;-66
2023/01/08 14:34:39;;;;;;;;;;;;;;;;;;5098829;28;20463;-66
2023/01/08 14:37:09;;;;;;;;;;;;;;;;;;5103811;28;20326;-66
2023/01/08 14:39:37;;;;;;;;;;;;;;;;;;5107213;28;20019;-66
2023/01/08 14:44:49;;;;;;;;;;;;;;;;;;5107935;28;19927;-65
2023/01/08 14:47:15;;;;;;;;;;;;;;;;;;5099183;28;19935;-66
2023/01/08 14:49:43;;;;;;;;;;;;;;;;;;5099400;28;20361;-66
2023/01/08 14:52:09;;;;;;;;;;;;;;;;;;5114091;28;19924;-66
2023/01/08 14:54:35;;;;;;;;;;;;;;;;;;5113240;28;19992;-66
2023/01/08 14:57:02;;;;;;;;;;;;;;;;;;5113058;28;19933;-66
2023/01/08 14:59:28;;;;;;;;;;;;;;;;;;5098806;28;19920;-65
2023/01/08 15:01:54;;;;;;;;;;;;;;;;;;5079915;28;19957;-66
2023/01/08 15:04:20;;;;;;;;;;;;;;;;;;5107523;28;19919;-66
2023/01/08 15:06:46;;;;;;;;;;;;;;;;;;5113840;28;19908;-66
2023/01/08 15:09:12;;;;;;;;;;;;;;;;;;5105420;28;19912;-66
2023/01/08 15:11:38;;;;;;;;;;;;;;;;;;5099850;28;19918;-65
2023/01/08 15:14:04;;;;;;;;;;;;;;;;;;5095995;28;19923;-66
2023/01/08 15:16:30;;;;;;;;;;;;;;;;;;5089089;28;19917;-66
2023/01/08 15:18:56;;;;;;;;;;;;;;;;;;5077864;28;19923;-66
2023/01/08 15:21:21;;;;;;;;;;;;;;;;;;5075275;28;19952;-65
2023/01/08 15:23:47;;;;;;;;;;;;;;;;;;5092658;28;19931;-65
2023/01/08 15:26:14;;;;;;;;;;;;;;;;;;5092662;28;19961;-65
2023/01/08 15:28:40;;;;;;;;;;;;;;;;;;5092762;28;19908;-65
2023/01/08 15:31:06;;;;;;;;;;;;;;;;;;5083969;28;20312;-65
2023/01/08 15:33:32;;;;;;;;;;;;;;;;;;5090457;28;19923;-65
2023/01/08 15:35:58;;;;;;;;;;;;;;;;;;5090903;28;20269;-65
2023/01/08 15:38:24;;;;;;;;;;;;;;;;;;5080963;28;20015;-65
2023/01/08 15:40:52;;;;;;;;;;;;;;;;;;5088685;28;20010;-65
2023/01/08 15:43:18;;;;;;;;;;;;;;;;;;5089937;28;19912;-65
2023/01/08 15:45:44;;;;;;;;;;;;;;;;;;5092052;28;19981;-65
2023/01/08 15:48:09;;;;;;;;;;;;;;;;;;5092618;28;19916;-65
2023/01/08 15:50:37;;;;;;;;;;;;;;;;;;5091835;28;19912;-65
2023/01/08 15:53:03;;;;;;;;;;;;;;;;;;5072764;28;19913;-65
2023/01/08 15:55:31;;;;;;;;;;;;;;;;;;5078604;28;20017;-65
2023/01/08 15:57:57;;;;;;;;;;;;;;;;;;5092288;28;19919;-65
2023/01/08 16:00:23;;;;;;;;;;;;;;;;;;5092334;28;20023;-65
2023/01/08 16:02:49;;;;;;;;;;;;;;;;;;5092510;28;19935;-65
2023/01/08 16:05:16;;;;;;;;;;;;;;;;;;5074189;28;20361;-65
2023/01/08 16:07:42;;;;;;;;;;;;;;;;;;5091802;28;20376;-65
2023/01/08 16:10:08;;;;;;;;;;;;;;;;;;5091399;28;20347;-65
2023/01/08 16:12:34;;;;;;;;;;;;;;;;;;5091456;28;19912;-65
2023/01/08 16:15:00;;;;;;;;;;;;;;;;;;5092295;28;19908;-65
2023/01/08 16:17:26;;;;;;;;;;;;;;;;;;5073982;28;19943;-65
2023/01/08 16:19:52;;;;;;;;;;;;;;;;;;5091654;28;20339;-65
2023/01/08 16:22:18;;;;;;;;;;;;;;;;;;5092085;28;20194;-65
2023/01/08 16:24:44;;;;;;;;;;;;;;;;;;5092220;28;20042;-65
2023/01/08 16:27:10;;;;;;;;;;;;;;;;;;5091877;28;19919;-65
2023/01/08 16:29:36;;;;;;;;;;;;;;;;;;5091443;28;19919;-65
2023/01/08 16:32:02;;;;;;;;;;;;;;;;;;5091142;28;20003;-65
2023/01/08 16:34:28;;;;;;;;;;;;;;;;;;5090005;28;19981;-65
2023/01/08 16:36:54;;;;;;;;;;;;;;;;;;5091411;28;19947;-65
2023/01/08 16:39:20;;;;;;;;;;;;;;;;;;5091904;28;19919;-65